Time;durP1;ratioP1;P1;durP2;ratioP2;P2;SDS_P1;SDS_P2;PMS_P1;PMS_P2;Temp;Humidity;BMP_temperature;BMP_pressure;BME280_temperature;BME280_humidity;BME280_pressure;Samples;Min_cycle;Max_cycle;Signal;HPM_P1;HPM_P2
2023/01/07 00:01:08;;;;;;;25.15;15.65;;;10.00;99.90;;;;;;5038872;28;20415;-63
2023/01/07 00:03:35;;;;;;;24.92;16.13;;;10.10;99.90;;;;;;5042109;28;20041;-62
2023/01/07 00:06:03;;;;;;;27.20;17.02;;;10.00;99.90;;;;;;5045393;28;20083;-63
2023/01/07 00:08:30;;;;;;;26.45;16.75;;;10.10;99.90;;;;;;5049938;28;20102;-63
2023/01/07 00:10:59;;;;;;;23.88;16.23;;;10.20;99.90;;;;;;5024791;28;20041;-62
2023/01/07 00:13:25;;;;;;;25.60;17.30;;;10.20;99.90;;;;;;5039246;28;20033;-66
2023/01/07 00:15:51;;;;;;;28.23;18.52;;;10.20;99.90;;;;;;5024781;28;20036;-62
2023/01/07 00:18:16;;;;;;;25.90;17.38;;;10.20;99.90;;;;;;5025536;28;20037;-62
2023/01/07 00:20:42;;;;;;;26.75;17.63;;;10.20;99.90;;;;;;5024290;28;20034;-62
2023/01/07 00:23:07;;;;;;;28.02;17.63;;;10.20;99.90;;;;;;5036959;28;20127;-63
2023/01/07 00:25:33;;;;;;;25.83;18.17;;;10.30;99.90;;;;;;5043191;28;20495;-62
2023/01/07 00:27:58;;;;;;;25.42;18.02;;;10.30;99.90;;;;;;5047825;28;20032;-61
2023/01/07 00:30:24;;;;;;;25.38;17.42;;;10.30;99.90;;;;;;5035649;28;20388;-62
2023/01/07 00:33:03;;;;;;;26.92;18.65;;;10.30;99.90;;;;;;5020710;28;20132;-64
2023/01/07 00:35:35;;;;;;;28.92;20.05;;;10.40;99.90;;;;;;5039897;28;20045;-62
2023/01/07 00:38:02;;;;;;;28.63;19.52;;;10.40;99.90;;;;;;5014922;28;20519;-62
2023/01/07 00:40:29;;;;;;;29.40;19.52;;;10.40;99.90;;;;;;5025131;28;20344;-62
2023/01/07 00:43:02;;;;;;;28.80;18.95;;;10.40;99.90;;;;;;5030469;28;20083;-62
2023/01/07 00:45:34;;;;;;;28.63;20.05;;;10.50;99.90;;;;;;5035210;28;20044;-64
2023/01/07 00:48:02;;;;;;;27.75;19.13;;;10.50;99.90;;;;;;5041395;28;20060;-64
2023/01/07 00:50:33;;;;;;;27.80;19.30;;;10.50;99.90;;;;;;5048565;28;20025;-62
2023/01/07 00:52:59;;;;;;;27.95;19.75;;;10.50;99.90;;;;;;5034619;28;20377;-62
2023/01/07 00:55:26;;;;;;;28.15;19.48;;;10.50;99.90;;;;;;5052976;28;20082;-63
2023/01/07 00:57:52;;;;;;;29.48;20.02;;;10.60;99.90;;;;;;5052823;28;20510;-62
2023/01/07 01:00:19;;;;;;;27.52;19.38;;;10.50;99.90;;;;;;5039321;28;20385;-63
2023/01/07 01:02:46;;;;;;;28.92;19.42;;;10.50;99.90;;;;;;5041497;28;20033;-62
2023/01/07 01:05:12;;;;;;;27.20;19.70;;;10.50;99.90;;;;;;5035411;28;20049;-63
2023/01/07 01:07:38;;;;;;;26.13;19.15;;;10.50;99.90;;;;;;5043566;28;20091;-63
2023/01/07 01:10:06;;;;;;;29.73;19.73;;;10.60;99.90;;;;;;5020665;28;20037;-62
2023/01/07 01:12:34;;;;;;;26.70;18.45;;;10.60;99.90;;;;;;5042653;28;20144;-62
2023/01/07 01:15:00;;;;;;;28.25;18.92;;;10.60;99.90;;;;;;5043370;28;20052;-62
2023/01/07 01:17:26;;;;;;;25.58;19.17;;;10.50;99.90;;;;;;5048541;28;20037;-62
2023/01/07 01:19:52;;;;;;;27.02;18.55;;;10.60;99.90;;;;;;5030183;28;20388;-62
2023/01/07 01:22:17;;;;;;;29.42;19.40;;;10.60;99.90;;;;;;5044711;28;20040;-63
2023/01/07 01:24:43;;;;;;;25.08;18.48;;;10.70;99.90;;;;;;5039754;28;20167;-64
2023/01/07 01:27:09;;;;;;;27.75;19.13;;;10.50;99.90;;;;;;5038189;28;20025;-62
2023/01/07 01:29:34;;;;;;;26.15;18.40;;;10.60;99.90;;;;;;5045582;28;20171;-63
2023/01/07 01:32:03;;;;;;;26.17;18.33;;;10.50;99.90;;;;;;5027387;28;20052;-63
2023/01/07 01:34:29;;;;;;;24.88;18.30;;;10.50;99.90;;;;;;5040642;28;20060;-62
2023/01/07 01:36:54;;;;;;;25.58;18.20;;;10.60;99.90;;;;;;5039043;28;20037;-63
2023/01/07 01:39:20;;;;;;;23.73;17.15;;;10.60;99.90;;;;;;5047903;28;20048;-63
2023/01/07 01:41:47;;;;;;;24.98;17.10;;;10.50;99.90;;;;;;5053544;28;20041;-63
2023/01/07 01:44:51;;;;;;;24.02;17.55;;;10.60;99.90;;;;;;5046277;28;20037;-62
2023/01/07 01:47:26;;;;;;;25.98;17.63;;;10.60;99.90;;;;;;5040101;28;20088;-63
2023/01/07 01:50:07;;;;;;;22.98;17.00;;;10.60;99.90;;;;;;5052096;28;20033;-62
2023/01/07 01:52:47;;;;;;;23.05;16.98;;;10.50;99.90;;;;;;5027919;28;20123;-62
2023/01/07 01:55:16;;;;;;;23.58;17.63;;;10.70;99.90;;;;;;5031339;28;20041;-64
2023/01/07 01:57:43;;;;;;;23.63;16.88;;;10.50;99.90;;;;;;5033740;28;20075;-65
2023/01/07 02:00:10;;;;;;;24.65;17.48;;;10.50;99.90;;;;;;5037762;28;20496;-63
2023/01/07 02:02:42;;;;;;;24.70;17.48;;;10.60;99.90;;;;;;5033031;28;20548;-63
2023/01/07 02:05:08;;;;;;;25.17;18.27;;;10.50;99.90;;;;;;5058248;28;20040;-63
2023/01/07 02:07:34;;;;;;;25.25;17.58;;;10.50;99.90;;;;;;5029834;28;20086;-63
2023/01/07 02:10:10;;;;;;;23.90;17.65;;;10.60;99.90;;;;;;5048611;28;20546;-63
2023/01/07 02:13:04;;;;;;;25.02;18.27;;;10.60;99.90;;;;;;5047194;28;20408;-62
2023/01/07 02:15:36;;;;;;;28.13;18.65;;;10.50;99.90;;;;;;4996848;28;20058;-63
2023/01/07 02:18:40;;;;;;;26.73;18.90;;;10.50;99.90;;;;;;5048450;28;20036;-62
2023/01/07 02:21:19;;;;;;;24.40;18.33;;;10.50;99.90;;;;;;5021308;28;20547;-63
2023/01/07 02:23:45;;;;;;;23.50;17.58;;;10.50;99.90;;;;;;5040962;28;20487;-64
2023/01/07 02:26:52;;;;;;;25.15;16.73;;;10.50;99.90;;;;;;5035754;28;20037;-62
2023/01/07 02:29:36;;;;;;;24.65;17.75;;;10.50;99.90;;;;;;5030431;28;20040;-65
2023/01/07 02:32:46;;;;;;;21.70;16.60;;;10.50;99.90;;;;;;5050022;28;20052;-62
2023/01/07 02:35:27;;;;;;;24.23;17.15;;;10.50;99.90;;;;;;5045517;28;20106;-63
2023/01/07 02:38:19;;;;;;;24.00;16.92;;;10.50;99.90;;;;;;5023135;28;20080;-62
2023/01/07 02:40:47;;;;;;;22.08;16.33;;;10.50;99.90;;;;;;5031802;28;20063;-64
2023/01/07 02:43:28;;;;;;;23.52;16.35;;;10.50;99.90;;;;;;5022537;28;20116;-62
2023/01/07 02:45:59;;;;;;;23.80;16.30;;;10.50;99.90;;;;;;5047215;28;20037;-62
2023/01/07 02:48:26;;;;;;;23.58;17.08;;;10.50;99.90;;;;;;5035895;28;20041;-65
2023/01/07 02:50:51;;;;;;;24.98;16.33;;;10.50;99.90;;;;;;5035209;28;20479;-65
2023/01/07 02:53:19;;;;;;;25.77;17.00;;;10.50;99.90;;;;;;5017916;28;20165;-63
2023/01/07 02:56:15;;;;;;;22.05;15.63;;;10.50;99.90;;;;;;5040114;28;20036;-63
2023/01/07 02:58:51;;;;;;;23.73;16.70;;;10.50;99.90;;;;;;5035664;28;20049;-63
2023/01/07 03:01:20;;;;;;;23.67;17.10;;;10.50;99.90;;;;;;5026052;28;20068;-63
2023/01/07 03:04:13;;;;;;;21.15;15.88;;;10.50;99.90;;;;;;5044734;28;20381;-63
2023/01/07 03:07:33;;;;;;;25.05;16.67;;;10.50;99.90;;;;;;5046979;28;20047;-63
2023/01/07 03:10:13;;;;;;;23.02;16.65;;;10.50;99.90;;;;;;5019914;28;20138;-63
2023/01/07 03:13:25;;;;;;;22.10;16.35;;;10.50;99.90;;;;;;5044651;28;20044;-63
2023/01/07 03:16:02;;;;;;;23.92;15.52;;;10.50;99.90;;;;;;5006923;28;20304;-63
2023/01/07 03:18:31;;;;;;;24.08;15.82;;;10.50;99.90;;;;;;5023085;28;20041;-64
2023/01/07 03:21:00;;;;;;;23.55;15.55;;;10.50;99.90;;;;;;5051668;28;20041;-64
2023/01/07 03:23:28;;;;;;;21.90;15.48;;;10.50;99.90;;;;;;5033035;28;20049;-63
2023/01/07 03:25:57;;;;;;;23.80;15.57;;;10.50;99.90;;;;;;5044078;28;20100;-63
2023/01/07 03:28:28;;;;;;;24.02;14.82;;;10.50;99.90;;;;;;5028155;28;20087;-63
2023/01/07 03:30:56;;;;;;;21.35;14.27;;;10.50;99.90;;;;;;5041159;28;20029;-63
2023/01/07 03:33:55;;;;;;;21.75;13.85;;;10.50;99.90;;;;;;5048171;28;20051;-63
2023/01/07 03:36:28;;;;;;;21.50;14.77;;;10.50;99.90;;;;;;5026417;28;20056;-64
2023/01/07 03:38:55;;;;;;;23.60;14.93;;;10.50;99.90;;;;;;5042318;28;20071;-63
2023/01/07 03:44:05;;;;;;;20.92;13.07;;;10.50;99.90;;;;;;5020700;28;20140;-65
2023/01/07 03:46:33;;;;;;;18.35;13.40;;;10.50;99.90;;;;;;5042059;28;20107;-63
2023/01/07 03:48:58;;;;;;;20.95;13.68;;;10.60;99.90;;;;;;5045727;28;20035;-63
2023/01/07 03:51:24;;;;;;;21.17;12.80;;;10.50;99.90;;;;;;5026318;28;20396;-63
2023/01/07 03:53:49;;;;;;;18.20;13.25;;;10.50;99.90;;;;;;5044758;28;20051;-63
2023/01/07 03:56:15;;;;;;;18.15;13.55;;;10.50;99.90;;;;;;5023414;28;20043;-63
2023/01/07 03:58:41;;;;;;;20.83;13.30;;;10.50;99.90;;;;;;5042161;28;20278;-62
2023/01/07 04:01:07;;;;;;;17.02;12.80;;;10.50;99.90;;;;;;5042593;28;20033;-63
2023/01/07 04:03:32;;;;;;;19.92;12.65;;;10.50;99.90;;;;;;5039243;28;20037;-63
2023/01/07 04:05:58;;;;;;;19.73;12.68;;;10.50;99.90;;;;;;5033760;28;20037;-63
2023/01/07 04:08:23;;;;;;;16.95;12.90;;;10.50;99.90;;;;;;5020004;28;20076;-64
2023/01/07 04:10:49;;;;;;;17.95;12.65;;;10.50;99.90;;;;;;5048668;28;20029;-63
2023/01/07 04:13:15;;;;;;;18.75;13.10;;;10.50;99.90;;;;;;5043213;28;20389;-63
2023/01/07 04:15:41;;;;;;;17.83;12.52;;;10.40;99.90;;;;;;5029009;28;20079;-62
2023/01/07 04:18:07;;;;;;;18.77;12.52;;;10.40;99.90;;;;;;5024363;28;20408;-63
2023/01/07 04:20:33;;;;;;;19.45;12.25;;;10.40;99.90;;;;;;5044104;28;20052;-63
2023/01/07 04:22:59;;;;;;;17.77;12.50;;;10.30;99.90;;;;;;5040968;28;20045;-63
2023/01/07 04:25:24;;;;;;;17.95;11.90;;;10.40;99.90;;;;;;5041721;28;20036;-64
2023/01/07 04:27:50;;;;;;;19.88;13.20;;;10.40;99.90;;;;;;5029674;28;20415;-63
2023/01/07 04:30:15;;;;;;;20.33;11.40;;;10.40;99.90;;;;;;5032155;28;20064;-63
2023/01/07 04:32:41;;;;;;;17.77;11.52;;;10.30;99.90;;;;;;5037855;28;20471;-63
2023/01/07 04:35:07;;;;;;;18.33;12.15;;;10.20;99.90;;;;;;5049395;28;20041;-65
2023/01/07 04:37:33;;;;;;;17.13;11.52;;;10.30;99.90;;;;;;5048267;28;20036;-64
2023/01/07 04:39:58;;;;;;;19.80;11.98;;;10.30;99.90;;;;;;5036295;28;20086;-62
2023/01/07 04:42:24;;;;;;;14.93;10.60;;;10.30;99.90;;;;;;5040723;28;20095;-62
2023/01/07 04:44:49;;;;;;;17.20;11.10;;;10.30;99.90;;;;;;5038980;28;20040;-62
2023/01/07 04:47:15;;;;;;;14.35;10.55;;;10.40;99.90;;;;;;5046341;28;20033;-63
2023/01/07 04:49:41;;;;;;;19.67;11.13;;;10.30;99.90;;;;;;5034751;28;20127;-66
2023/01/07 04:52:07;;;;;;;16.67;10.23;;;10.30;99.90;;;;;;5026243;28;20079;-63
2023/01/07 04:54:33;;;;;;;15.32;10.13;;;10.30;99.90;;;;;;5041800;28;20088;-64
2023/01/07 04:56:59;;;;;;;18.10;9.85;;;10.40;99.90;;;;;;5042151;28;20068;-63
2023/01/07 04:59:24;;;;;;;15.02;10.38;;;10.30;99.90;;;;;;5039074;28;20058;-63
2023/01/07 05:01:50;;;;;;;16.83;10.25;;;10.30;99.90;;;;;;5039763;28;20124;-63
2023/01/07 05:04:15;;;;;;;14.02;9.60;;;10.30;99.90;;;;;;5033609;28;20036;-63
2023/01/07 05:06:41;;;;;;;13.20;9.23;;;10.30;99.90;;;;;;5041476;28;20411;-62
2023/01/07 05:09:06;;;;;;;13.65;9.63;;;10.30;99.90;;;;;;5032069;28;20037;-63
2023/01/07 05:11:32;;;;;;;15.65;9.43;;;10.30;99.90;;;;;;5030321;28;20036;-63
2023/01/07 05:14:02;;;;;;;14.80;9.10;;;10.30;99.90;;;;;;5040164;28;20041;-64
2023/01/07 05:16:28;;;;;;;13.05;9.68;;;10.30;99.90;;;;;;5008767;28;20041;-66
2023/01/07 05:18:53;;;;;;;16.08;9.77;;;10.30;99.90;;;;;;5026569;28;20133;-67
2023/01/07 05:21:19;;;;;;;14.73;9.00;;;10.30;99.90;;;;;;5031507;28;20029;-63
2023/01/07 05:23:45;;;;;;;15.50;9.10;;;10.30;99.90;;;;;;5045295;28;20040;-63
2023/01/07 05:26:10;;;;;;;13.95;9.30;;;10.30;99.90;;;;;;5031174;28;20388;-63
2023/01/07 05:28:36;;;;;;;11.95;8.60;;;10.30;99.90;;;;;;5030245;28;20061;-63
2023/01/07 05:31:02;;;;;;;10.68;8.23;;;10.40;99.90;;;;;;5039342;28;20091;-64
2023/01/07 05:33:27;;;;;;;12.98;8.80;;;10.30;99.90;;;;;;5044845;28;20033;-64
2023/01/07 05:35:53;;;;;;;15.82;9.05;;;10.40;99.90;;;;;;5047126;28;20032;-64
2023/01/07 05:38:19;;;;;;;15.73;9.52;;;10.40;99.90;;;;;;5040942;28;20037;-63
2023/01/07 05:40:48;;;;;;;13.82;8.55;;;10.40;99.90;;;;;;5046981;28;20029;-62
2023/01/07 05:43:14;;;;;;;12.25;8.15;;;10.40;99.90;;;;;;5039095;28;20040;-64
2023/01/07 05:45:45;;;;;;;12.95;8.52;;;10.40;99.90;;;;;;5030543;28;20040;-64
2023/01/07 05:48:12;;;;;;;15.32;8.90;;;10.40;99.90;;;;;;5044967;28;20060;-63
2023/01/07 05:50:38;;;;;;;13.52;8.68;;;10.40;99.90;;;;;;5063373;28;20029;-64
2023/01/07 05:53:03;;;;;;;12.55;8.80;;;10.40;99.90;;;;;;5053815;28;20044;-64
2023/01/07 05:55:29;;;;;;;13.73;8.85;;;10.40;99.90;;;;;;5025583;28;20409;-64
2023/01/07 05:57:55;;;;;;;13.35;8.48;;;10.40;99.90;;;;;;5045388;28;20045;-64
2023/01/07 06:00:20;;;;;;;12.85;8.07;;;10.40;99.90;;;;;;5042897;28;20037;-62
2023/01/07 06:02:46;;;;;;;12.27;7.85;;;10.30;99.90;;;;;;5044588;28;20045;-64
2023/01/07 06:05:12;;;;;;;12.13;8.60;;;10.30;99.90;;;;;;5025692;28;20083;-62
2023/01/07 06:07:37;;;;;;;12.90;8.15;;;10.30;99.90;;;;;;5046347;28;20068;-63
2023/01/07 06:10:03;;;;;;;12.73;7.65;;;10.30;99.90;;;;;;5022599;28;20121;-64
2023/01/07 06:12:29;;;;;;;12.63;7.38;;;10.30;99.90;;;;;;5041235;28;20037;-62
2023/01/07 06:14:55;;;;;;;11.70;7.20;;;10.30;99.90;;;;;;5046102;28;20040;-64
2023/01/07 06:17:20;;;;;;;10.07;7.53;;;10.30;99.90;;;;;;5043847;28;20571;-62
2023/01/07 06:19:46;;;;;;;13.55;7.82;;;10.30;99.90;;;;;;5024748;28;20041;-62
2023/01/07 06:22:13;;;;;;;13.57;7.72;;;10.40;99.90;;;;;;5028699;28;20038;-62
2023/01/07 06:24:38;;;;;;;11.48;8.10;;;10.30;99.90;;;;;;5033688;28;20029;-62
2023/01/07 06:27:04;;;;;;;10.50;7.85;;;10.30;99.90;;;;;;5030223;28;20053;-62
2023/01/07 06:29:29;;;;;;;13.13;7.82;;;10.30;99.90;;;;;;5037259;28;20038;-65
2023/01/07 06:31:55;;;;;;;11.95;7.80;;;10.30;99.90;;;;;;5032769;28;20037;-63
2023/01/07 06:34:21;;;;;;;12.90;7.22;;;10.30;99.90;;;;;;5027950;28;20040;-62
2023/01/07 06:36:46;;;;;;;12.45;7.85;;;10.30;99.90;;;;;;5041993;28;20442;-62
2023/01/07 06:39:12;;;;;;;12.52;7.53;;;10.30;99.90;;;;;;5031143;28;20044;-64
2023/01/07 06:41:37;;;;;;;11.70;7.20;;;10.30;99.90;;;;;;5042261;28;20074;-63
2023/01/07 06:44:03;;;;;;;10.40;7.03;;;10.30;99.90;;;;;;5042222;28;20041;-62
2023/01/07 06:46:29;;;;;;;12.80;7.13;;;10.20;99.90;;;;;;5045466;28;20368;-63
2023/01/07 06:48:54;;;;;;;11.60;7.10;;;10.20;99.90;;;;;;5039921;28;20080;-63
2023/01/07 06:51:20;;;;;;;8.95;5.80;;;10.20;99.90;;;;;;5050905;28;20041;-64
2023/01/07 06:53:45;;;;;;;10.95;7.03;;;10.10;99.90;;;;;;5048296;28;20442;-62
2023/01/07 06:56:11;;;;;;;9.43;6.65;;;10.20;99.90;;;;;;5046706;28;20466;-63
2023/01/07 06:58:37;;;;;;;9.27;6.40;;;10.10;99.90;;;;;;5043931;28;20033;-63
2023/01/07 07:01:04;;;;;;;9.55;6.70;;;10.10;99.90;;;;;;5037964;28;20038;-65
2023/01/07 07:03:30;;;;;;;11.00;6.15;;;10.20;99.90;;;;;;5039146;28;20492;-63
2023/01/07 07:05:55;;;;;;;10.68;6.38;;;10.10;99.90;;;;;;5043830;28;20098;-65
2023/01/07 07:08:21;;;;;;;10.95;6.40;;;10.20;99.90;;;;;;5030180;28;20041;-63
2023/01/07 07:10:47;;;;;;;11.60;6.38;;;10.10;99.90;;;;;;5050984;28;20510;-64
2023/01/07 07:13:12;;;;;;;10.43;6.10;;;10.10;99.90;;;;;;5036008;28;20048;-63
2023/01/07 07:15:38;;;;;;;9.85;5.97;;;10.10;99.90;;;;;;5044284;28;20949;-63
2023/01/07 07:18:03;;;;;;;10.95;6.30;;;10.10;99.90;;;;;;5043455;28;20060;-63
2023/01/07 07:20:29;;;;;;;8.45;5.80;;;10.00;99.90;;;;;;5056542;28;20087;-64
2023/01/07 07:22:54;;;;;;;10.90;6.03;;;10.00;99.90;;;;;;5046807;28;20115;-63
2023/01/07 07:25:20;;;;;;;9.50;5.57;;;10.10;99.90;;;;;;5028273;28;20501;-63
2023/01/07 07:27:46;;;;;;;10.35;5.60;;;10.00;99.90;;;;;;5043782;28;20040;-63
2023/01/07 07:30:15;;;;;;;10.25;6.18;;;10.00;99.90;;;;;;5041071;28;20523;-63
2023/01/07 07:32:42;;;;;;;8.75;6.00;;;10.00;99.90;;;;;;5028407;28;20045;-63
2023/01/07 07:35:08;;;;;;;7.63;5.22;;;10.00;99.90;;;;;;5023293;28;20386;-65
2023/01/07 07:37:33;;;;;;;8.50;5.47;;;9.90;99.90;;;;;;5019639;28;20072;-65
2023/01/07 07:39:59;;;;;;;8.70;5.65;;;9.90;99.90;;;;;;5036252;28;20594;-63
2023/01/07 07:42:25;;;;;;;10.10;5.60;;;9.90;99.90;;;;;;5022740;28;20129;-63
2023/01/07 07:44:50;;;;;;;9.65;5.75;;;10.00;99.90;;;;;;5047822;28;20048;-64
2023/01/07 07:47:17;;;;;;;9.20;5.78;;;9.90;99.90;;;;;;5046258;28;20088;-64
2023/01/07 07:49:42;;;;;;;9.57;5.50;;;9.90;99.90;;;;;;5045391;28;20079;-63
2023/01/07 07:52:08;;;;;;;8.05;5.75;;;9.80;99.90;;;;;;5046548;28;20040;-64
2023/01/07 07:54:34;;;;;;;9.23;5.93;;;9.80;99.90;;;;;;5040553;28;20036;-63
2023/01/07 07:56:59;;;;;;;8.80;5.53;;;9.80;99.90;;;;;;5027891;28;20124;-62
2023/01/07 07:59:25;;;;;;;10.50;5.22;;;9.80;99.90;;;;;;5037824;28;20503;-62
2023/01/07 08:01:50;;;;;;;8.95;5.68;;;9.80;99.90;;;;;;5042684;28;20041;-63
2023/01/07 08:04:16;;;;;;;8.10;5.53;;;9.80;99.90;;;;;;5041576;28;20037;-65
2023/01/07 08:06:42;;;;;;;9.48;5.85;;;9.80;99.90;;;;;;5023568;28;20044;-62
2023/01/07 08:09:07;;;;;;;8.75;5.60;;;9.70;99.90;;;;;;5043336;28;20083;-62
2023/01/07 08:11:33;;;;;;;7.60;5.50;;;9.80;99.90;;;;;;5037244;28;20377;-63
2023/01/07 08:13:59;;;;;;;8.45;5.25;;;9.70;99.90;;;;;;5025726;28;20479;-63
2023/01/07 08:16:24;;;;;;;8.27;5.65;;;9.80;99.90;;;;;;5020735;28;20499;-62
2023/01/07 08:18:50;;;;;;;7.85;5.53;;;9.80;99.90;;;;;;5041622;28;20148;-63
2023/01/07 08:21:15;;;;;;;10.00;5.20;;;9.70;99.90;;;;;;5037129;28;20086;-63
2023/01/07 08:23:41;;;;;;;9.43;5.53;;;9.70;99.90;;;;;;5045791;28;20449;-63
2023/01/07 08:26:07;;;;;;;8.85;5.10;;;9.70;99.90;;;;;;5037240;28;20033;-64
2023/01/07 08:28:33;;;;;;;9.27;5.03;;;9.70;99.90;;;;;;5049389;28;20033;-63
2023/01/07 08:31:02;;;;;;;11.73;5.55;;;9.70;99.90;;;;;;5034582;28;20071;-64
2023/01/07 08:33:29;;;;;;;7.30;5.13;;;9.70;99.90;;;;;;5045520;28;20041;-63
2023/01/07 08:35:54;;;;;;;8.15;5.15;;;9.70;99.90;;;;;;5043702;28;20045;-62
2023/01/07 08:38:20;;;;;;;9.38;5.25;;;9.70;99.90;;;;;;5022523;28;20049;-63
2023/01/07 08:40:46;;;;;;;7.75;5.07;;;9.70;99.90;;;;;;5033648;28;20044;-64
2023/01/07 08:43:11;;;;;;;9.55;5.05;;;9.60;99.90;;;;;;5023632;28;20396;-64
2023/01/07 08:45:37;;;;;;;8.55;4.97;;;9.70;99.90;;;;;;5049754;28;20507;-62
2023/01/07 08:48:03;;;;;;;7.70;4.78;;;9.70;99.90;;;;;;5055965;28;20037;-62
2023/01/07 08:50:31;;;;;;;9.40;4.97;;;9.70;99.90;;;;;;5023819;28;20044;-63
2023/01/07 08:52:56;;;;;;;14.32;4.90;;;9.70;99.90;;;;;;5040512;28;20048;-63
2023/01/07 08:55:23;;;;;;;7.93;4.72;;;9.70;99.90;;;;;;5032306;28;20036;-63
2023/01/07 08:57:48;;;;;;;7.57;4.53;;;9.70;99.90;;;;;;5034919;28;20143;-63
2023/01/07 09:00:16;;;;;;;8.60;4.20;;;9.70;99.90;;;;;;5048782;28;20499;-63
2023/01/07 09:02:42;;;;;;;6.70;4.05;;;9.70;99.90;;;;;;5025997;28;20059;-62
2023/01/07 09:05:09;;;;;;;6.35;3.80;;;9.70;99.90;;;;;;5021123;28;20209;-62
2023/01/07 09:07:34;;;;;;;5.80;3.95;;;9.70;99.90;;;;;;5040739;28;20565;-62
2023/01/07 09:10:00;;;;;;;9.98;4.50;;;9.80;99.90;;;;;;5044979;28;20125;-63
2023/01/07 09:12:26;;;;;;;7.45;4.43;;;9.70;99.90;;;;;;5049458;28;20300;-62
2023/01/07 09:14:52;;;;;;;7.45;4.30;;;9.70;99.90;;;;;;5032754;28;20086;-62
2023/01/07 09:17:18;;;;;;;8.35;4.68;;;9.70;99.90;;;;;;5039601;28;20048;-62
2023/01/07 09:19:43;;;;;;;6.80;3.97;;;9.70;99.90;;;;;;5052828;28;20037;-62
2023/01/07 09:22:09;;;;;;;6.80;4.00;;;9.70;99.90;;;;;;5054493;28;20036;-63
2023/01/07 09:24:34;;;;;;;4.97;3.85;;;9.80;99.90;;;;;;5033189;28;20400;-65
2023/01/07 09:27:00;;;;;;;5.82;3.83;;;9.80;99.90;;;;;;5048307;28;20029;-63
2023/01/07 09:29:25;;;;;;;8.85;4.22;;;9.80;99.90;;;;;;5047891;28;20060;-63
2023/01/07 09:31:51;;;;;;;7.43;3.95;;;9.80;99.90;;;;;;5021825;28;20045;-63
2023/01/07 09:34:17;;;;;;;5.65;3.70;;;9.80;99.90;;;;;;5054232;28;20037;-65
2023/01/07 09:36:42;;;;;;;7.38;4.10;;;9.80;99.90;;;;;;5037062;28;20484;-63
2023/01/07 09:39:10;;;;;;;6.78;3.42;;;9.90;99.90;;;;;;5022986;28;20033;-63
2023/01/07 09:42:02;;;;;;;5.95;3.70;;;9.80;99.90;;;;;;5043740;28;20127;-63
2023/01/07 09:44:40;;;;;;;6.10;3.80;;;9.90;99.90;;;;;;5048543;28;20418;-63
2023/01/07 09:47:08;;;;;;;11.95;3.95;;;9.90;99.90;;;;;;5046528;28;20084;-63
2023/01/07 09:49:34;;;;;;;6.07;3.50;;;10.00;99.90;;;;;;5046123;28;20098;-63
2023/01/07 09:52:35;;;;;;;6.38;3.70;;;10.00;99.90;;;;;;5027228;28;20044;-64
2023/01/07 09:55:09;;;;;;;7.10;3.63;;;10.00;99.90;;;;;;5026795;28;20064;-63
2023/01/07 09:57:35;;;;;;;7.30;3.80;;;10.00;99.90;;;;;;5047206;28;20513;-63
2023/01/07 10:00:02;;;;;;;5.88;3.72;;;10.00;99.90;;;;;;5042399;28;20116;-62
2023/01/07 10:02:55;;;;;;;5.18;2.90;;;10.10;99.90;;;;;;5022460;28;20099;-63
2023/01/07 10:05:41;;;;;;;5.47;3.10;;;10.10;99.90;;;;;;5036873;28;20037;-63
2023/01/07 10:08:38;;;;;;;4.82;2.83;;;10.10;99.90;;;;;;5008951;28;20041;-63
2023/01/07 10:11:15;;;;;;;4.70;2.90;;;10.20;99.90;;;;;;5052479;28;20207;-63
2023/01/07 10:13:59;;;;;;;9.25;3.05;;;10.20;99.90;;;;;;5049444;28;20049;-63
2023/01/07 10:16:53;;;;;;;4.07;2.85;;;10.20;99.90;;;;;;5046936;28;20041;-63
2023/01/07 10:19:31;;;;;;;4.32;2.63;;;10.30;99.90;;;;;;5046278;28;20029;-63
2023/01/07 10:22:08;;;;;;;5.30;2.78;;;10.30;99.90;;;;;;5027215;28;20045;-62
2023/01/07 10:24:39;;;;;;;6.03;2.70;;;10.40;99.90;;;;;;5045725;28;20041;-62
2023/01/07 10:27:18;;;;;;;6.07;2.67;;;10.60;99.90;;;;;;5044239;28;20045;-64
2023/01/07 10:29:51;;;;;;;4.78;2.60;;;10.40;99.90;;;;;;5017429;28;20033;-66
2023/01/07 10:32:19;;;;;;;4.75;2.67;;;10.50;99.90;;;;;;5049763;28;20036;-64
2023/01/07 10:34:52;;;;;;;4.13;2.65;;;10.40;99.90;;;;;;5044790;28;20113;-63
2023/01/07 10:37:37;;;;;;;6.82;3.05;;;10.50;99.90;;;;;;5026205;28;20036;-63
2023/01/07 10:40:21;;;;;;;5.45;2.65;;;10.50;99.90;;;;;;5041989;28;20037;-65
2023/01/07 10:42:58;;;;;;;4.43;2.78;;;10.50;99.90;;;;;;5031239;28;20465;-63
2023/01/07 10:45:44;;;;;;;4.78;2.53;;;10.50;99.90;;;;;;5031222;28;20037;-63
2023/01/07 10:48:30;;;;;;;3.67;2.45;;;10.60;99.90;;;;;;5026865;28;20120;-64
2023/01/07 10:51:24;;;;;;;5.20;2.70;;;10.60;99.90;;;;;;5036096;28;20099;-64
2023/01/07 10:54:07;;;;;;;6.65;2.70;;;10.60;99.90;;;;;;4992497;28;20700;-63
2023/01/07 10:56:41;;;;;;;4.53;2.70;;;10.60;99.90;;;;;;5038777;28;20044;-65
2023/01/07 10:59:15;;;;;;;3.95;2.70;;;10.50;99.90;;;;;;5038030;28;20040;-65
2023/01/07 11:01:45;;;;;;;6.32;2.60;;;10.60;99.90;;;;;;5047382;28;20041;-63
2023/01/07 11:04:14;;;;;;;3.83;2.40;;;10.60;99.90;;;;;;5033566;28;20112;-63
2023/01/07 11:06:42;;;;;;;4.40;2.42;;;10.60;99.90;;;;;;5044451;28;20480;-63
2023/01/07 11:09:31;;;;;;;3.67;2.22;;;10.60;99.90;;;;;;5021823;28;20034;-64
2023/01/07 11:12:31;;;;;;;4.53;2.47;;;10.60;99.90;;;;;;5045680;28;20041;-63
2023/01/07 11:15:02;;;;;;;4.03;2.40;;;10.70;99.90;;;;;;4997813;28;20091;-63
2023/01/07 11:17:36;;;;;;;3.88;2.55;;;10.70;99.90;;;;;;5041154;28;20089;-65
2023/01/07 11:20:02;;;;;;;4.85;2.55;;;10.70;99.90;;;;;;5040979;28;20404;-63
2023/01/07 11:22:31;;;;;;;4.30;2.65;;;10.70;99.90;;;;;;5031186;28;20033;-63
2023/01/07 11:24:58;;;;;;;3.40;2.50;;;10.70;99.90;;;;;;5047502;28;20048;-63
2023/01/07 11:27:27;;;;;;;3.78;2.60;;;10.70;99.90;;;;;;5032840;28;20041;-62
2023/01/07 11:30:25;;;;;;;3.70;2.47;;;10.70;99.90;;;;;;5044721;28;20037;-63
2023/01/07 11:33:03;;;;;;;6.18;2.63;;;10.80;99.90;;;;;;5037491;28;20056;-64
2023/01/07 11:35:29;;;;;;;3.83;2.55;;;10.80;99.90;;;;;;5032913;28;20427;-63
2023/01/07 11:37:56;;;;;;;5.03;2.30;;;10.80;99.90;;;;;;5043364;28;20091;-63
2023/01/07 11:40:28;;;;;;;3.30;2.55;;;10.80;99.90;;;;;;5021680;28;20084;-63
2023/01/07 11:42:55;;;;;;;5.97;3.27;;;10.80;99.90;;;;;;5028768;28;20041;-64
2023/01/07 11:45:52;;;;;;;5.35;3.13;;;10.90;99.90;;;;;;5022879;28;20299;-64
2023/01/07 11:48:27;;;;;;;5.38;2.60;;;10.90;99.90;;;;;;5037232;28;20041;-64
2023/01/07 11:50:52;;;;;;;3.53;2.17;;;10.80;99.90;;;;;;5031888;28;20488;-64
2023/01/07 11:53:18;;;;;;;4.40;2.13;;;10.90;99.90;;;;;;5037737;28;20320;-64
2023/01/07 11:56:02;;;;;;;3.28;2.10;;;10.90;99.90;;;;;;5015591;28;20119;-64
2023/01/07 11:58:30;;;;;;;3.92;2.30;;;10.90;99.90;;;;;;5040013;28;20364;-63
2023/01/07 12:01:11;;;;;;;4.22;2.08;;;10.90;99.90;;;;;;5031225;28;20500;-63
2023/01/07 12:03:58;;;;;;;3.47;2.05;;;10.90;99.90;;;;;;5041749;28;20044;-63
2023/01/07 12:06:28;;;;;;;3.03;2.10;;;10.90;99.90;;;;;;4996372;28;20044;-63
2023/01/07 12:09:06;;;;;;;4.90;2.05;;;10.90;99.90;;;;;;5039571;28;20067;-64
2023/01/07 12:11:38;;;;;;;3.70;2.10;;;10.90;99.90;;;;;;5026741;28;20404;-63
2023/01/07 12:14:23;;;;;;;3.38;2.00;;;10.90;99.90;;;;;;5038169;28;20551;-63
2023/01/07 12:16:50;;;;;;;3.95;2.08;;;10.90;99.90;;;;;;5046116;28;20120;-64
2023/01/07 12:19:55;;;;;;;3.33;1.90;;;10.90;99.90;;;;;;5045981;28;20551;-63
2023/01/07 12:22:26;;;;;;;4.55;2.20;;;10.90;99.90;;;;;;5001784;28;20058;-64
2023/01/07 12:25:02;;;;;;;4.15;2.30;;;10.90;99.90;;;;;;5046510;28;20055;-63
2023/01/07 12:27:35;;;;;;;4.43;2.00;;;11.00;99.90;;;;;;5032567;28;20037;-64
2023/01/07 12:30:20;;;;;;;2.30;1.70;;;11.10;99.90;;;;;;5025834;28;20055;-64
2023/01/07 12:33:00;;;;;;;3.85;1.88;;;11.10;99.90;;;;;;5028898;28;20106;-64
2023/01/07 12:35:29;;;;;;;4.38;2.00;;;11.20;99.90;;;;;;5015332;28;20044;-63
2023/01/07 12:38:11;;;;;;;3.58;2.03;;;11.30;99.90;;;;;;5038313;28;20056;-63
2023/01/07 12:40:46;;;;;;;3.63;1.90;;;11.20;99.90;;;;;;5048003;28;20116;-63
2023/01/07 12:43:29;;;;;;;1.85;1.40;;;11.20;99.90;;;;;;5019787;28;20396;-64
2023/01/07 12:45:58;;;;;;;3.33;1.60;;;11.20;99.90;;;;;;5046815;28;20102;-64
2023/01/07 12:48:53;;;;;;;3.58;1.80;;;11.10;99.90;;;;;;5042323;28;20033;-63
2023/01/07 12:51:24;;;;;;;2.65;1.73;;;11.20;99.90;;;;;;5050607;28;20483;-63
2023/01/07 12:54:00;;;;;;;1.95;1.70;;;11.20;99.90;;;;;;5020957;28;20041;-63
2023/01/07 12:56:38;;;;;;;2.95;1.88;;;11.30;99.90;;;;;;5050376;28;20033;-64
2023/01/07 12:59:23;;;;;;;2.85;1.80;;;11.50;99.90;;;;;;5051556;28;20072;-63